createdAt,value
2023-05-12T00:00:48.149Z,49.01
2023-05-12T00:03:16.013Z,48.99
2023-05-12T00:05:42.818Z,49.04
2023-05-12T00:08:09.438Z,48.88
2023-05-12T00:10:36.042Z,48.91
2023-05-12T00:13:02.651Z,49.03
2023-05-12T00:15:29.125Z,48.95
2023-05-12T00:17:55.684Z,48.92
2023-05-12T00:20:23.525Z,48.91
2023-05-12T00:22:50.102Z,48.71
2023-05-12T00:25:16.791Z,48.96
2023-05-12T00:27:43.219Z,48.86
2023-05-12T00:30:10.288Z,48.96
2023-05-12T00:32:37.067Z,48.90
2023-05-12T00:35:03.889Z,48.79
2023-05-12T00:37:31.695Z,48.79
2023-05-12T00:39:58.137Z,48.78
2023-05-12T00:42:24.708Z,48.75
2023-05-12T00:44:51.142Z,48.81
2023-05-12T00:47:17.984Z,48.93
2023-05-12T00:49:44.526Z,48.87
2023-05-12T00:52:11.212Z,48.56
2023-05-12T00:54:40.364Z,48.70
2023-05-12T00:57:06.885Z,48.68
2023-05-12T00:59:33.318Z,48.74
2023-05-12T01:01:59.885Z,48.34
2023-05-12T01:04:26.350Z,48.76
2023-05-12T01:06:58.020Z,48.73
2023-05-12T01:09:24.599Z,48.74
2023-05-12T01:11:52.397Z,48.60
2023-05-12T01:14:18.970Z,48.56
2023-05-12T01:16:51.159Z,48.66
2023-05-12T01:19:32.614Z,48.61
2023-05-12T01:22:00.222Z,48.68
2023-05-12T01:24:30.462Z,48.93
2023-05-12T01:26:59.018Z,48.39
2023-05-12T01:29:26.092Z,48.64
2023-05-12T01:31:52.673Z,48.76
2023-05-12T01:34:19.160Z,48.60
2023-05-12T01:36:45.630Z,48.62
2023-05-12T01:39:12.151Z,48.64
2023-05-12T01:41:38.591Z,48.63
2023-05-12T01:44:06.502Z,48.64
2023-05-12T01:46:33.083Z,48.43
2023-05-12T01:48:59.573Z,48.62
2023-05-12T01:51:26.041Z,48.59
2023-05-12T01:53:52.475Z,48.50
2023-05-12T01:56:18.901Z,48.39
2023-05-12T01:58:45.485Z,48.47
2023-05-12T02:01:13.285Z,48.30
2023-05-12T02:03:40.030Z,48.45
2023-05-12T02:06:06.718Z,48.54
2023-05-12T02:08:33.146Z,48.35
2023-05-12T02:11:07.117Z,48.61
2023-05-12T02:13:33.731Z,48.47
2023-05-12T02:16:00.246Z,48.56
2023-05-12T02:18:28.241Z,48.36
2023-05-12T02:20:54.756Z,48.49
2023-05-12T02:23:21.226Z,48.46
2023-05-12T02:25:47.773Z,48.32
2023-05-12T02:28:14.226Z,48.50
2023-05-12T02:30:45.728Z,48.54
2023-05-12T02:33:12.601Z,48.62
2023-05-12T02:35:40.361Z,48.48
2023-05-12T02:38:07.004Z,48.57
2023-05-12T02:40:33.445Z,48.37
2023-05-12T02:42:59.850Z,48.57
2023-05-12T02:45:26.294Z,48.42
2023-05-12T02:47:52.758Z,48.66
2023-05-12T02:50:19.660Z,48.62
2023-05-12T02:52:47.741Z,48.44
2023-05-12T02:55:14.162Z,48.49
2023-05-12T02:57:40.598Z,48.40
2023-05-12T03:00:07.813Z,48.51
2023-05-12T03:02:34.858Z,48.52
2023-05-12T03:05:01.635Z,48.24
2023-05-12T03:07:28.276Z,48.51
2023-05-12T03:09:56.301Z,48.50
2023-05-12T03:12:22.744Z,48.44
2023-05-12T03:14:49.252Z,48.59
2023-05-12T03:17:15.784Z,48.52
2023-05-12T03:19:42.243Z,48.16
2023-05-12T03:22:09.074Z,48.30
2023-05-12T03:24:35.646Z,48.38
2023-05-12T03:27:03.665Z,48.49
2023-05-12T03:29:30.166Z,48.46
2023-05-12T03:31:56.790Z,48.66
2023-05-12T03:34:23.378Z,48.39
2023-05-12T03:36:49.852Z,48.55
2023-05-12T03:39:16.409Z,48.55
2023-05-12T03:41:42.868Z,48.46
2023-05-12T03:44:12.684Z,48.22
2023-05-12T03:46:39.211Z,48.52
2023-05-12T03:49:05.732Z,48.60
2023-05-12T03:51:32.248Z,48.56
2023-05-12T03:53:58.828Z,48.50
2023-05-12T03:56:25.363Z,48.49
2023-05-12T03:58:51.794Z,48.56
2023-05-12T04:01:19.732Z,48.74
2023-05-12T04:03:46.513Z,48.49
2023-05-12T04:06:13.131Z,48.53
2023-05-12T04:08:41.859Z,48.51
2023-05-12T04:11:08.636Z,48.49
2023-05-12T04:13:35.953Z,48.54
2023-05-12T04:16:02.555Z,48.52
2023-05-12T04:18:30.437Z,48.34
2023-05-12T04:20:57.358Z,48.71
2023-05-12T04:23:24.044Z,48.57
2023-05-12T04:25:50.621Z,48.62
2023-05-12T04:28:17.123Z,48.67
2023-05-12T04:30:43.562Z,48.62
2023-05-12T04:33:10.321Z,48.47
2023-05-12T04:35:38.245Z,48.50
2023-05-12T04:38:04.745Z,48.40
2023-05-12T04:40:33.410Z,48.66
2023-05-12T04:43:01.203Z,48.69
2023-05-12T04:45:27.724Z,48.26
2023-05-12T04:47:54.194Z,48.61
2023-05-12T04:50:20.721Z,48.63
2023-05-12T04:52:48.530Z,48.58
2023-05-12T04:55:15.010Z,48.64
2023-05-12T04:57:41.645Z,48.51
2023-05-12T05:00:09.231Z,48.56
2023-05-12T05:02:36.099Z,48.71
2023-05-12T05:05:02.830Z,48.65
2023-05-12T05:07:29.362Z,48.61
2023-05-12T05:09:57.120Z,48.57
2023-05-12T05:12:23.692Z,48.58
2023-05-12T05:14:50.161Z,48.48
2023-05-12T05:17:16.877Z,48.76
2023-05-12T05:19:54.857Z,48.75
2023-05-12T05:22:22.472Z,48.57
2023-05-12T05:24:48.936Z,48.59
2023-05-12T05:27:16.702Z,48.57
2023-05-12T05:29:43.321Z,48.68
2023-05-12T05:32:09.804Z,48.59
2023-05-12T05:34:36.295Z,48.66
2023-05-12T05:37:02.813Z,48.71
2023-05-12T05:39:29.268Z,49.13
2023-05-12T05:41:55.719Z,49.18
2023-05-12T05:44:23.585Z,48.98
2023-05-12T05:46:50.321Z,49.17
2023-05-12T05:49:17.016Z,49.12
2023-05-12T05:51:43.471Z,49.05
2023-05-12T05:54:09.966Z,49.09
2023-05-12T05:56:36.415Z,49.28
2023-05-12T05:59:02.944Z,49.52
2023-05-12T06:01:30.864Z,49.44
2023-05-12T06:03:57.532Z,49.60
2023-05-12T06:06:24.037Z,49.57
2023-05-12T06:08:50.519Z,49.71
2023-05-12T06:11:17.922Z,49.88
2023-05-12T06:13:44.547Z,49.69
2023-05-12T06:16:11.135Z,49.60
2023-05-12T06:18:39.146Z,49.65
2023-05-12T06:21:05.885Z,49.45
2023-05-12T06:23:32.496Z,49.17
2023-05-12T06:25:59.027Z,49.50
2023-05-12T06:28:25.777Z,51.00
2023-05-12T06:30:52.703Z,50.87
2023-05-12T06:33:19.726Z,50.00
2023-05-12T06:35:47.850Z,49.49
2023-05-12T06:38:14.313Z,49.45
2023-05-12T06:40:40.777Z,49.70
2023-05-12T06:43:07.265Z,50.18
2023-05-12T06:45:33.904Z,50.13
2023-05-12T06:48:00.453Z,50.25
2023-05-12T06:50:27.099Z,50.24
2023-05-12T06:52:55.009Z,50.36
2023-05-12T06:55:22.422Z,50.46
2023-05-12T06:57:49.411Z,50.52
2023-05-12T07:00:16.302Z,50.62
2023-05-12T07:02:42.803Z,50.91
2023-05-12T07:05:09.770Z,50.97
2023-05-12T07:07:36.749Z,51.08
2023-05-12T07:10:05.180Z,51.23
2023-05-12T07:12:31.738Z,51.78
2023-05-12T07:14:58.296Z,51.81
2023-05-12T07:17:25.262Z,51.85
2023-05-12T07:19:51.968Z,51.90
2023-05-12T07:22:19.186Z,52.16
2023-05-12T07:24:45.911Z,52.95
2023-05-12T07:27:13.694Z,53.42
2023-05-12T07:29:40.160Z,52.65
2023-05-12T07:32:06.829Z,53.31
2023-05-12T07:34:33.717Z,53.46
2023-05-12T07:37:00.901Z,53.75
2023-05-12T07:39:27.416Z,53.59
2023-05-12T07:41:53.942Z,53.67
2023-05-12T07:44:21.710Z,53.64
2023-05-12T07:46:48.238Z,53.56
2023-05-12T07:49:14.805Z,53.63
2023-05-12T07:51:41.335Z,53.75
2023-05-12T07:54:07.796Z,53.85
2023-05-12T07:56:34.338Z,53.60
2023-05-12T07:59:00.853Z,53.57
2023-05-12T08:01:28.690Z,53.66
2023-05-12T08:03:55.281Z,53.79
2023-05-12T08:06:21.795Z,53.73
2023-05-12T08:08:48.438Z,53.80
2023-05-12T08:11:14.939Z,53.63
2023-05-12T08:13:41.585Z,53.90
2023-05-12T08:16:08.035Z,53.92
2023-05-12T08:18:35.894Z,54.22
2023-05-12T08:21:02.381Z,53.63
2023-05-12T08:23:28.831Z,54.84
2023-05-12T08:25:55.349Z,54.37
2023-05-12T08:28:21.937Z,54.26
2023-05-12T08:30:48.442Z,55.41
2023-05-12T08:33:15.004Z,55.09
2023-05-12T08:35:42.794Z,54.94
2023-05-12T08:38:09.419Z,55.34
2023-05-12T08:40:41.819Z,54.97
2023-05-12T08:43:18.395Z,54.86
2023-05-12T08:45:46.909Z,54.98
2023-05-12T08:48:15.162Z,54.86
2023-05-12T08:50:44.211Z,55.02
2023-05-12T08:53:11.409Z,55.03
2023-05-12T08:55:39.450Z,54.42
2023-05-12T08:58:09.566Z,54.16
2023-05-12T09:00:39.238Z,54.52
2023-05-12T09:03:06.604Z,54.44
2023-05-12T09:05:34.048Z,54.27
2023-05-12T09:08:02.061Z,54.49
2023-05-12T09:13:03.656Z,54.36
2023-05-12T09:15:35.348Z,54.48
2023-05-12T09:18:01.993Z,54.49
2023-05-12T09:20:31.800Z,54.36
2023-05-12T09:22:58.879Z,54.39
2023-05-12T09:25:26.647Z,54.46
2023-05-12T09:27:55.270Z,54.62
2023-05-12T09:30:29.766Z,53.70
2023-05-12T09:33:06.260Z,54.56
2023-05-12T09:35:38.331Z,54.61
2023-05-12T09:38:06.922Z,53.72
2023-05-12T09:40:34.902Z,53.65
2023-05-12T09:43:01.395Z,53.35
2023-05-12T09:45:28.069Z,53.12
2023-05-12T09:47:54.598Z,52.83
2023-05-12T09:50:21.239Z,52.87
2023-05-12T09:52:50.001Z,52.82
2023-05-12T09:55:16.478Z,52.58
2023-05-12T09:57:45.317Z,52.42
2023-05-12T10:00:31.326Z,52.11
2023-05-12T10:03:01.317Z,52.18
2023-05-12T10:05:28.993Z,52.13
2023-05-12T10:08:00.210Z,52.08
2023-05-12T10:10:28.459Z,52.00
2023-05-12T10:12:56.661Z,51.91
2023-05-12T10:15:24.285Z,51.81
2023-05-12T10:17:53.769Z,52.12
2023-05-12T10:20:20.873Z,52.18
2023-05-12T10:22:49.669Z,53.77
2023-05-12T10:25:17.487Z,53.91
2023-05-12T10:27:44.682Z,52.96
2023-05-12T10:30:13.492Z,54.39
2023-05-12T10:32:40.537Z,54.10
2023-05-12T10:35:08.554Z,53.50
2023-05-12T10:37:36.006Z,53.25
2023-05-12T10:40:02.662Z,54.18
2023-05-12T10:42:37.743Z,54.15
2023-05-12T10:45:16.421Z,54.08
2023-05-12T10:47:43.332Z,53.97
2023-05-12T10:50:10.720Z,53.81
2023-05-12T10:52:37.497Z,53.80
2023-05-12T10:55:04.747Z,53.44
2023-05-12T10:57:32.445Z,53.46
2023-05-12T11:00:01.169Z,53.51
2023-05-12T11:02:31.837Z,53.28
2023-05-12T11:05:00.457Z,53.12
2023-05-12T11:07:31.089Z,52.94
2023-05-12T11:10:02.252Z,53.05
2023-05-12T11:12:30.509Z,53.25
2023-05-12T11:14:59.976Z,53.26
2023-05-12T11:17:27.431Z,52.87
2023-05-12T11:19:55.339Z,52.95
2023-05-12T11:22:22.868Z,52.79
2023-05-12T11:24:50.770Z,52.87
2023-05-12T11:27:19.981Z,52.55
2023-05-12T11:29:56.605Z,52.11
2023-05-12T11:32:23.108Z,52.08
2023-05-12T11:34:49.624Z,52.11
2023-05-12T11:37:17.414Z,52.12
2023-05-12T11:39:44.050Z,52.08
2023-05-12T11:42:13.218Z,52.01
2023-05-12T11:44:47.069Z,52.13
2023-05-12T11:47:14.827Z,52.06
2023-05-12T11:49:46.872Z,52.09
2023-05-12T11:52:14.092Z,51.92
2023-05-12T11:54:48.458Z,51.88
2023-05-12T11:57:25.151Z,52.01
2023-05-12T11:59:57.205Z,52.05
2023-05-12T12:02:23.711Z,52.10
2023-05-12T12:04:50.184Z,51.48
2023-05-12T12:07:16.635Z,51.43
2023-05-12T12:09:44.777Z,51.56
2023-05-12T12:12:11.294Z,51.85
2023-05-12T12:14:38.198Z,52.50
2023-05-12T12:17:05.273Z,52.94
2023-05-12T12:19:31.778Z,52.86
2023-05-12T12:21:58.401Z,53.01
2023-05-12T12:24:25.625Z,54.02
2023-05-12T12:26:53.589Z,53.95
2023-05-12T12:29:20.107Z,54.61
2023-05-12T12:31:46.920Z,53.79
2023-05-12T12:34:13.420Z,54.18
2023-05-12T12:36:39.906Z,54.33
2023-05-12T12:39:06.659Z,54.28
2023-05-12T12:41:33.198Z,54.01
2023-05-12T12:44:00.985Z,53.85
2023-05-12T12:46:27.535Z,53.70
2023-05-12T12:48:53.969Z,53.85
2023-05-12T12:51:20.474Z,53.51
2023-05-12T12:53:46.956Z,53.63
2023-05-12T12:56:13.408Z,53.65
2023-05-12T12:58:39.952Z,53.72
2023-05-12T13:01:07.865Z,53.83
2023-05-12T13:03:34.535Z,53.94
2023-05-12T13:06:01.072Z,53.80
2023-05-12T13:08:27.518Z,53.96
2023-05-12T13:10:54.953Z,53.90
2023-05-12T13:13:21.437Z,53.83
2023-05-12T13:15:47.876Z,53.12
2023-05-12T13:18:15.653Z,52.55
2023-05-12T13:20:42.161Z,52.35
2023-05-12T13:23:08.629Z,52.19
2023-05-12T13:25:35.129Z,52.22
2023-05-12T13:28:01.647Z,52.02
2023-05-12T13:30:28.295Z,52.20
2023-05-12T13:32:54.882Z,51.89
2023-05-12T13:35:23.276Z,51.86
2023-05-12T13:37:49.844Z,52.61
2023-05-12T13:40:16.465Z,52.66
2023-05-12T13:42:42.923Z,52.72
2023-05-12T13:45:10.269Z,52.49
2023-05-12T13:47:36.742Z,52.40
2023-05-12T13:50:03.512Z,52.28
2023-05-12T13:52:31.223Z,52.77
2023-05-12T13:54:57.658Z,53.12
2023-05-12T13:57:24.137Z,53.30
2023-05-12T13:59:50.597Z,52.57
2023-05-12T14:02:17.212Z,52.11
2023-05-12T14:04:43.737Z,52.09
2023-05-12T14:07:10.306Z,51.90
2023-05-12T14:09:38.094Z,51.66
2023-05-12T14:12:05.040Z,51.69
2023-05-12T14:14:31.497Z,51.71
2023-05-12T14:16:58.100Z,52.78
2023-05-12T14:19:24.529Z,53.21
2023-05-12T14:21:50.954Z,53.25
2023-05-12T14:24:17.405Z,53.21
2023-05-12T14:26:45.223Z,53.25
2023-05-12T14:29:11.773Z,53.25
2023-05-12T14:31:38.279Z,53.53
2023-05-12T14:34:04.899Z,52.98
2023-05-12T14:36:31.376Z,52.38
2023-05-12T14:38:57.849Z,51.94
2023-05-12T14:41:24.255Z,52.43
2023-05-12T14:43:52.034Z,52.23
2023-05-12T14:46:18.676Z,52.08
2023-05-12T14:48:45.229Z,52.19
2023-05-12T14:51:11.651Z,51.90
2023-05-12T14:53:38.121Z,51.46
2023-05-12T14:56:04.979Z,51.32
2023-05-12T14:58:31.432Z,51.64
2023-05-12T15:00:59.157Z,52.30
2023-05-12T15:03:25.788Z,52.64
2023-05-12T15:06:05.523Z,52.74
2023-05-12T15:08:33.200Z,52.76
2023-05-12T15:10:59.692Z,52.98
2023-05-12T15:13:26.141Z,52.69
2023-05-12T15:15:55.217Z,52.78
2023-05-12T15:18:24.809Z,52.91
2023-05-12T15:20:51.552Z,52.66
2023-05-12T15:23:18.069Z,52.81
2023-05-12T15:25:44.523Z,52.80
2023-05-12T15:28:10.997Z,52.85
2023-05-12T15:30:37.504Z,52.86
2023-05-12T15:33:04.209Z,52.76
2023-05-12T15:35:32.499Z,52.77
2023-05-12T15:37:59.549Z,52.58
2023-05-12T15:40:26.133Z,52.61
2023-05-12T15:42:52.693Z,52.71
2023-05-12T15:45:19.536Z,52.50
2023-05-12T15:47:46.230Z,52.55
2023-05-12T15:50:12.749Z,52.63
2023-05-12T15:52:40.665Z,52.60
2023-05-12T15:55:07.657Z,52.57
2023-05-12T15:57:34.060Z,52.54
2023-05-12T16:00:00.648Z,52.63
2023-05-12T16:02:27.202Z,52.61
2023-05-12T16:04:53.694Z,52.85
2023-05-12T16:07:20.185Z,52.63
2023-05-12T16:09:48.073Z,52.86
2023-05-12T16:12:14.519Z,52.62
2023-05-12T16:14:41.039Z,52.61
2023-05-12T16:17:07.472Z,52.67
2023-05-12T16:19:34.061Z,52.77
2023-05-12T16:22:00.656Z,52.78
2023-05-12T16:24:27.229Z,52.91
2023-05-12T16:26:55.076Z,52.82
2023-05-12T16:29:21.516Z,52.65
2023-05-12T16:31:47.991Z,52.52
2023-05-12T16:34:14.515Z,52.75
2023-05-12T16:36:41.061Z,52.85
2023-05-12T16:39:07.521Z,52.76
2023-05-12T16:41:34.231Z,52.75
2023-05-12T16:44:01.998Z,52.74
2023-05-12T16:46:28.459Z,52.92
2023-05-12T16:48:55.006Z,52.75
2023-05-12T16:51:21.464Z,52.83
2023-05-12T16:53:47.911Z,52.80
2023-05-12T16:56:14.449Z,52.90
2023-05-12T16:58:40.998Z,52.82
2023-05-12T17:01:08.793Z,52.78
2023-05-12T17:03:35.338Z,52.88
2023-05-12T17:06:01.929Z,52.91
2023-05-12T17:08:28.340Z,52.79
2023-05-12T17:10:54.765Z,52.83
2023-05-12T17:13:21.372Z,52.75
2023-05-12T17:15:47.946Z,52.85
2023-05-12T17:18:15.755Z,52.80
2023-05-12T17:20:42.273Z,52.90
2023-05-12T17:23:08.785Z,52.69
2023-05-12T17:25:35.567Z,52.76
2023-05-12T17:28:02.455Z,52.84
2023-05-12T17:30:28.891Z,52.90
2023-05-12T17:32:55.450Z,52.81
2023-05-12T17:35:23.552Z,52.82
2023-05-12T17:37:51.753Z,52.99
2023-05-12T17:40:18.541Z,53.06
2023-05-12T17:42:45.060Z,52.83
2023-05-12T17:45:12.200Z,52.94
2023-05-12T17:47:38.721Z,53.03
2023-05-12T17:50:06.244Z,53.03
2023-05-12T17:52:34.010Z,53.11
2023-05-12T17:55:00.435Z,53.12
2023-05-12T17:57:27.067Z,52.96
2023-05-12T17:59:53.714Z,52.90
2023-05-12T18:02:20.209Z,53.04
2023-05-12T18:04:46.811Z,52.96
2023-05-12T18:07:13.340Z,52.92
2023-05-12T18:09:41.125Z,53.05
2023-05-12T18:12:08.040Z,53.15
2023-05-12T18:14:34.493Z,52.98
2023-05-12T18:17:01.095Z,53.36
2023-05-12T18:19:27.567Z,53.05
2023-05-12T18:21:54.033Z,52.81
2023-05-12T18:24:20.482Z,53.15
2023-05-12T18:26:48.232Z,53.15
2023-05-12T18:29:14.737Z,53.06
2023-05-12T18:31:41.357Z,53.06
2023-05-12T18:34:07.811Z,53.07
2023-05-12T18:36:34.347Z,53.21
2023-05-12T18:39:00.795Z,53.16
2023-05-12T18:41:27.273Z,52.86
2023-05-12T18:43:55.050Z,53.13
2023-05-12T18:46:22.059Z,53.27
2023-05-12T18:48:48.669Z,53.18
2023-05-12T18:51:15.123Z,53.20
2023-05-12T18:53:41.612Z,53.40
2023-05-12T18:56:08.037Z,53.30
2023-05-12T18:58:34.510Z,53.19
2023-05-12T19:01:02.264Z,53.29
2023-05-12T19:03:28.801Z,53.31
2023-05-12T19:05:55.294Z,53.21
2023-05-12T19:08:21.745Z,53.34
2023-05-12T19:10:48.471Z,53.18
2023-05-12T19:13:15.030Z,53.13
2023-05-12T19:15:41.520Z,53.39
2023-05-12T19:18:09.360Z,53.51
2023-05-12T19:20:36.559Z,53.22
2023-05-12T19:23:03.126Z,53.32
2023-05-12T19:25:29.630Z,53.28
2023-05-12T19:27:56.074Z,53.29
2023-05-12T19:30:22.509Z,53.13
2023-05-12T19:32:49.058Z,53.32
2023-05-12T19:35:17.016Z,53.35
2023-05-12T19:37:43.590Z,53.42
2023-05-12T19:40:10.550Z,53.14
2023-05-12T19:42:36.990Z,53.39
2023-05-12T19:45:04.065Z,53.34
2023-05-12T19:47:30.669Z,53.32
2023-05-12T19:49:57.193Z,53.27
2023-05-12T19:52:25.202Z,53.40
2023-05-12T19:54:52.129Z,53.45
2023-05-12T19:57:18.872Z,53.48
2023-05-12T19:59:45.414Z,53.47
2023-05-12T20:02:14.731Z,53.34
2023-05-12T20:04:41.305Z,53.34
2023-05-12T20:07:07.885Z,53.55
2023-05-12T20:09:35.790Z,53.48
2023-05-12T20:12:02.360Z,53.53
2023-05-12T20:14:28.809Z,53.41
2023-05-12T20:16:55.502Z,53.54
2023-05-12T20:19:22.012Z,53.35
2023-05-12T20:21:48.474Z,53.57
2023-05-12T20:24:15.133Z,53.51
2023-05-12T20:26:42.947Z,53.69
2023-05-12T20:29:09.393Z,53.50
2023-05-12T20:31:35.908Z,53.69
2023-05-12T20:34:02.382Z,53.62
2023-05-12T20:36:28.903Z,53.51
2023-05-12T20:38:55.454Z,53.48
2023-05-12T20:41:21.923Z,53.64
2023-05-12T20:43:49.696Z,53.51
2023-05-12T20:46:16.284Z,53.62
2023-05-12T20:48:42.816Z,53.65
2023-05-12T20:51:10.420Z,53.58
2023-05-12T20:53:36.883Z,53.63
2023-05-12T20:56:03.508Z,53.71
2023-05-12T20:58:30.111Z,53.66
2023-05-12T21:00:57.880Z,53.57
2023-05-12T21:03:24.556Z,53.74
2023-05-12T21:05:51.075Z,53.97
2023-05-12T21:08:17.582Z,53.65
2023-05-12T21:10:44.220Z,53.76
2023-05-12T21:13:10.679Z,53.75
2023-05-12T21:15:37.202Z,53.81
2023-05-12T21:18:05.072Z,53.88
2023-05-12T21:20:31.577Z,53.89
2023-05-12T21:22:58.027Z,53.94
2023-05-12T21:25:24.616Z,53.70
2023-05-12T21:27:51.886Z,53.83
2023-05-12T21:30:18.482Z,53.94
2023-05-12T21:32:45.195Z,53.81
2023-05-12T21:35:12.957Z,53.88
2023-05-12T21:37:39.397Z,53.64
2023-05-12T21:40:06.918Z,53.73
2023-05-12T21:42:33.448Z,53.83
2023-05-12T21:44:59.942Z,53.98
2023-05-12T21:47:26.415Z,53.83
2023-05-12T21:49:54.184Z,53.92
2023-05-12T21:52:22.396Z,53.93
2023-05-12T21:54:49.004Z,53.88
2023-05-12T21:57:15.493Z,53.93
2023-05-12T21:59:42.135Z,53.77
2023-05-12T22:02:08.668Z,53.93
2023-05-12T22:04:35.140Z,54.14
2023-05-12T22:07:01.729Z,53.87
2023-05-12T22:09:31.213Z,53.87
2023-05-12T22:11:57.815Z,54.04
2023-05-12T22:14:24.357Z,54.01
2023-05-12T22:16:50.909Z,54.04
2023-05-12T22:19:17.456Z,54.11
2023-05-12T22:21:43.995Z,54.07
2023-05-12T22:24:10.516Z,54.19
2023-05-12T22:26:38.469Z,54.08
2023-05-12T22:29:04.938Z,54.20
2023-05-12T22:31:31.537Z,54.07
2023-05-12T22:33:58.013Z,54.25
2023-05-12T22:36:24.531Z,54.16
2023-05-12T22:38:50.992Z,54.21
2023-05-12T22:41:17.494Z,54.45
2023-05-12T22:43:45.232Z,54.15
2023-05-12T22:46:11.678Z,54.16
2023-05-12T22:48:39.602Z,54.25
2023-05-12T22:51:06.596Z,54.22
2023-05-12T22:53:34.500Z,54.16
2023-05-12T22:56:00.967Z,54.29
2023-05-12T22:58:27.467Z,54.20
2023-05-12T23:00:55.702Z,54.10
2023-05-12T23:03:22.280Z,54.30
2023-05-12T23:05:48.710Z,54.42
2023-05-12T23:08:15.205Z,54.50
2023-05-12T23:10:41.682Z,54.36
2023-05-12T23:13:08.142Z,54.29
2023-05-12T23:15:34.665Z,54.36
2023-05-12T23:18:02.568Z,54.41
2023-05-12T23:20:29.079Z,54.26
2023-05-12T23:22:55.517Z,54.30
2023-05-12T23:25:22.150Z,54.57
2023-05-12T23:27:48.620Z,54.30
2023-05-12T23:30:15.418Z,54.40
2023-05-12T23:32:42.217Z,54.33
2023-05-12T23:35:10.538Z,54.43
2023-05-12T23:37:36.989Z,54.37
2023-05-12T23:40:04.016Z,54.36
2023-05-12T23:42:30.481Z,54.50
2023-05-12T23:44:56.992Z,54.46
2023-05-12T23:47:23.523Z,54.34
2023-05-12T23:49:50.068Z,54.40
2023-05-12T23:52:17.794Z,54.39
2023-05-12T23:54:44.250Z,54.56
2023-05-12T23:57:10.734Z,54.33
2023-05-12T23:59:37.223Z,54.50
